sensor_id;sensor_type;location;lat;lon;timestamp;pressure;altitude;pressure_sealevel;temperature;humidity
64889;BME280;51386;53.082;8.816;2023-02-21T00:01:43;101399.16;;;15.27;61.63
64889;BME280;51386;53.082;8.816;2023-02-21T00:04:28;101407.50;;;15.24;61.63
64889;BME280;51386;53.082;8.816;2023-02-21T00:07:14;101407.31;;;15.25;61.77
64889;BME280;51386;53.082;8.816;2023-02-21T00:09:59;101421.00;;;15.29;61.30
64889;BME280;51386;53.082;8.816;2023-02-21T00:12:45;101403.72;;;15.33;61.60
64889;BME280;51386;53.082;8.816;2023-02-21T00:15:33;101414.34;;;15.33;61.46
64889;BME280;51386;53.082;8.816;2023-02-21T00:18:18;101414.72;;;15.30;61.26
64889;BME280;51386;53.082;8.816;2023-02-21T00:21:04;101411.69;;;15.33;61.34
64889;BME280;51386;53.082;8.816;2023-02-21T00:23:50;101408.63;;;15.36;61.12
64889;BME280;51386;53.082;8.816;2023-02-21T00:26:35;101416.59;;;15.36;61.12
64889;BME280;51386;53.082;8.816;2023-02-21T00:29:21;101418.03;;;15.38;61.04
64889;BME280;51386;53.082;8.816;2023-02-21T00:32:07;101424.19;;;15.39;60.99
64889;BME280;51386;53.082;8.816;2023-02-21T00:34:53;101434.78;;;15.39;60.96
64889;BME280;51386;53.082;8.816;2023-02-21T00:37:38;101419.50;;;15.41;60.77
64889;BME280;51386;53.082;8.816;2023-02-21T00:40:24;101428.78;;;15.45;60.57
64889;BME280;51386;53.082;8.816;2023-02-21T00:43:09;101426.91;;;15.45;60.71
64889;BME280;51386;53.082;8.816;2023-02-21T00:45:55;101424.09;;;15.47;60.74
64889;BME280;51386;53.082;8.816;2023-02-21T00:48:41;101429.00;;;15.50;60.05
64889;BME280;51386;53.082;8.816;2023-02-21T00:51:27;101426.34;;;15.50;60.48
64889;BME280;51386;53.082;8.816;2023-02-21T00:54:12;101443.94;;;15.51;60.33
64889;BME280;51386;53.082;8.816;2023-02-21T00:56:58;101439.81;;;15.48;60.14
64889;BME280;51386;53.082;8.816;2023-02-21T00:59:43;101439.81;;;15.48;60.38
64889;BME280;51386;53.082;8.816;2023-02-21T01:02:29;101439.00;;;15.48;60.44
64889;BME280;51386;53.082;8.816;2023-02-21T01:05:16;101445.13;;;15.48;60.38
64889;BME280;51386;53.082;8.816;2023-02-21T01:08:01;101441.47;;;15.49;60.25
64889;BME280;51386;53.082;8.816;2023-02-21T01:10:47;101452.88;;;15.50;60.42
64889;BME280;51386;53.082;8.816;2023-02-21T01:13:32;101446.78;;;15.49;60.32
64889;BME280;51386;53.082;8.816;2023-02-21T01:16:18;101456.56;;;15.49;60.14
64889;BME280;51386;53.082;8.816;2023-02-21T01:19:03;101459.22;;;15.49;60.29
64889;BME280;51386;53.082;8.816;2023-02-21T01:21:50;101458.75;;;15.45;60.65
64889;BME280;51386;53.082;8.816;2023-02-21T01:24:35;101456.94;;;15.46;60.48
64889;BME280;51386;53.082;8.816;2023-02-21T01:27:21;101453.28;;;15.47;60.40
64889;BME280;51386;53.082;8.816;2023-02-21T01:30:07;101458.59;;;15.47;60.46
64889;BME280;51386;53.082;8.816;2023-02-21T01:32:53;101463.28;;;15.45;60.55
64889;BME280;51386;53.082;8.816;2023-02-21T01:35:38;101456.47;;;15.42;60.59
64889;BME280;51386;53.082;8.816;2023-02-21T01:38:25;101462.56;;;15.43;60.54
64889;BME280;51386;53.082;8.816;2023-02-21T01:41:10;101452.16;;;15.41;60.86
64889;BME280;51386;53.082;8.816;2023-02-21T01:43:59;101450.50;;;15.40;60.78
64889;BME280;51386;53.082;8.816;2023-02-21T01:46:45;101455.66;;;15.42;60.89
64889;BME280;51386;53.082;8.816;2023-02-21T01:49:32;101454.00;;;15.41;60.36
64889;BME280;51386;53.082;8.816;2023-02-21T01:52:19;101455.19;;;15.38;60.52
64889;BME280;51386;53.082;8.816;2023-02-21T01:55:07;101451.91;;;15.36;60.56
64889;BME280;51386;53.082;8.816;2023-02-21T01:57:55;101457.41;;;15.35;60.98
64889;BME280;51386;53.082;8.816;2023-02-21T02:00:41;101447.78;;;15.34;61.02
64889;BME280;51386;53.082;8.816;2023-02-21T02:03:29;101450.66;;;15.32;61.13
64889;BME280;51386;53.082;8.816;2023-02-21T02:06:16;101445.34;;;15.32;61.09
64889;BME280;51386;53.082;8.816;2023-02-21T02:09:15;101456.13;;;15.31;60.95
64889;BME280;51386;53.082;8.816;2023-02-21T02:12:33;101445.91;;;15.28;60.94
64889;BME280;51386;53.082;8.816;2023-02-21T02:15:40;101456.69;;;15.26;61.40
64889;BME280;51386;53.082;8.816;2023-02-21T02:21:53;101453.88;;;15.28;60.85
64889;BME280;51386;53.082;8.816;2023-02-21T02:25:03;101451.38;;;15.26;60.93
64889;BME280;51386;53.082;8.816;2023-02-21T02:28:14;101453.59;;;15.23;61.13
64889;BME280;51386;53.082;8.816;2023-02-21T02:31:21;101458.28;;;15.21;61.18
64889;BME280;51386;53.082;8.816;2023-02-21T02:34:29;101447.03;;;15.19;61.05
64889;BME280;51386;53.082;8.816;2023-02-21T02:37:13;101451.94;;;15.22;60.92
64889;BME280;51386;53.082;8.816;2023-02-21T02:39:48;101455.22;;;15.24;61.16
64889;BME280;51386;53.082;8.816;2023-02-21T02:42:30;101454.22;;;15.25;61.16
64889;BME280;51386;53.082;8.816;2023-02-21T02:45:05;101450.19;;;15.29;60.79
64889;BME280;51386;53.082;8.816;2023-02-21T02:47:37;101458.78;;;15.31;61.42
64889;BME280;51386;53.082;8.816;2023-02-21T02:50:09;101463.09;;;15.32;61.00
64889;BME280;51386;53.082;8.816;2023-02-21T02:52:49;101462.44;;;15.30;61.19
64889;BME280;51386;53.082;8.816;2023-02-21T02:55:31;101457.16;;;15.30;60.91
64889;BME280;51386;53.082;8.816;2023-02-21T02:58:00;101453.47;;;15.31;60.74
64889;BME280;51386;53.082;8.816;2023-02-21T03:00:30;101460.44;;;15.32;60.94
64889;BME280;51386;53.082;8.816;2023-02-21T03:03:38;101453.88;;;15.28;60.96
64889;BME280;51386;53.082;8.816;2023-02-21T03:06:24;101452.84;;;15.29;61.43
64889;BME280;51386;53.082;8.816;2023-02-21T03:09:08;101455.50;;;15.29;61.17
64889;BME280;51386;53.082;8.816;2023-02-21T03:11:48;101458.78;;;15.31;60.91
64889;BME280;51386;53.082;8.816;2023-02-21T03:14:23;101464.06;;;15.31;60.91
64889;BME280;51386;53.082;8.816;2023-02-21T03:17:00;101471.03;;;15.32;61.04
64889;BME280;51386;53.082;8.816;2023-02-21T03:19:33;101460.44;;;15.32;61.04
64889;BME280;51386;53.082;8.816;2023-02-21T03:22:06;101469.00;;;15.34;60.90
64889;BME280;51386;53.082;8.816;2023-02-21T03:24:36;101470.47;;;15.36;60.88
64889;BME280;51386;53.082;8.816;2023-02-21T03:27:06;101478.91;;;15.40;60.65
64889;BME280;51386;53.082;8.816;2023-02-21T03:29:36;101484.00;;;15.41;60.77
64889;BME280;51386;53.082;8.816;2023-02-21T03:32:08;101485.66;;;15.42;60.72
64889;BME280;51386;53.082;8.816;2023-02-21T03:34:37;101482.19;;;15.42;60.96
64889;BME280;51386;53.082;8.816;2023-02-21T03:37:09;101476.41;;;15.38;60.81
64889;BME280;51386;53.082;8.816;2023-02-21T03:39:36;101473.94;;;15.37;60.85
64889;BME280;51386;53.082;8.816;2023-02-21T03:42:03;101480.25;;;15.36;60.93
64889;BME280;51386;53.082;8.816;2023-02-21T03:44:30;101482.91;;;15.36;60.81
64889;BME280;51386;53.082;8.816;2023-02-21T03:46:57;101477.59;;;15.36;61.16
64889;BME280;51386;53.082;8.816;2023-02-21T03:49:24;101480.25;;;15.36;60.72
64889;BME280;51386;53.082;8.816;2023-02-21T03:51:51;101475.97;;;15.35;60.83
64889;BME280;51386;53.082;8.816;2023-02-21T03:54:19;101484.56;;;15.37;60.94
64889;BME280;51386;53.082;8.816;2023-02-21T03:56:46;101483.56;;;15.38;60.90
64889;BME280;51386;53.082;8.816;2023-02-21T03:59:13;101482.91;;;15.36;61.04
64889;BME280;51386;53.082;8.816;2023-02-21T04:01:40;101476.97;;;15.34;61.08
64889;BME280;51386;53.082;8.816;2023-02-21T04:04:08;101478.56;;;15.28;61.31
64889;BME280;51386;53.082;8.816;2023-02-21T04:06:35;101477.09;;;15.26;61.23
64889;BME280;51386;53.082;8.816;2023-02-21T04:09:02;101476.44;;;15.24;61.17
64889;BME280;51386;53.082;8.816;2023-02-21T04:11:31;101475.81;;;15.22;61.48
64889;BME280;51386;53.082;8.816;2023-02-21T04:13:58;101471.69;;;15.19;61.54
64889;BME280;51386;53.082;8.816;2023-02-21T04:16:25;101464.78;;;15.18;61.73
64889;BME280;51386;53.082;8.816;2023-02-21T04:18:52;101464.94;;;15.17;61.78
64889;BME280;51386;53.082;8.816;2023-02-21T04:21:19;101467.59;;;15.17;61.81
64889;BME280;51386;53.082;8.816;2023-02-21T04:23:46;101464.31;;;15.15;62.13
64889;BME280;51386;53.082;8.816;2023-02-21T04:26:13;101459.41;;;15.12;62.06
64889;BME280;51386;53.082;8.816;2023-02-21T04:28:41;101470.81;;;15.12;62.02
64889;BME280;51386;53.082;8.816;2023-02-21T04:31:08;101463.03;;;15.11;62.13
64889;BME280;51386;53.082;8.816;2023-02-21T04:33:35;101471.19;;;15.09;62.29
64889;BME280;51386;53.082;8.816;2023-02-21T04:36:02;101469.75;;;15.07;62.23
64889;BME280;51386;53.082;8.816;2023-02-21T04:38:29;101468.09;;;15.06;62.48
64889;BME280;51386;53.082;8.816;2023-02-21T04:40:56;101475.03;;;15.07;62.39
64889;BME280;51386;53.082;8.816;2023-02-21T04:43:23;101468.53;;;15.09;62.64
64889;BME280;51386;53.082;8.816;2023-02-21T04:45:51;101465.91;;;15.09;62.43
64889;BME280;51386;53.082;8.816;2023-02-21T04:48:18;101475.47;;;15.10;62.56
64889;BME280;51386;53.082;8.816;2023-02-21T04:50:46;101466.53;;;15.11;62.39
64889;BME280;51386;53.082;8.816;2023-02-21T04:53:13;101466.53;;;15.11;62.18
64889;BME280;51386;53.082;8.816;2023-02-21T04:55:40;101460.41;;;15.11;62.18
64889;BME280;51386;53.082;8.816;2023-02-21T04:58:07;101466.69;;;15.10;62.56
64889;BME280;51386;53.082;8.816;2023-02-21T05:00:34;101458.72;;;15.10;62.43
64889;BME280;51386;53.082;8.816;2023-02-21T05:03:02;101458.72;;;15.10;62.51
64889;BME280;51386;53.082;8.816;2023-02-21T05:05:29;101456.09;;;15.10;62.28
64889;BME280;51386;53.082;8.816;2023-02-21T05:07:56;101449.78;;;15.11;62.43
64889;BME280;51386;53.082;8.816;2023-02-21T05:10:23;101456.56;;;15.13;62.15
64889;BME280;51386;53.082;8.816;2023-02-21T05:13:02;101448.59;;;15.13;62.36
64889;BME280;51386;53.082;8.816;2023-02-21T05:15:29;101457.38;;;15.14;62.40
64889;BME280;51386;53.082;8.816;2023-02-21T05:17:56;101457.38;;;15.14;62.37
64889;BME280;51386;53.082;8.816;2023-02-21T05:20:24;101453.69;;;15.15;62.27
64889;BME280;51386;53.082;8.816;2023-02-21T05:22:51;101459.00;;;15.15;62.38
64889;BME280;51386;53.082;8.816;2023-02-21T05:25:23;101455.53;;;15.14;62.09
64889;BME280;51386;53.082;8.816;2023-02-21T05:27:51;101464.31;;;15.15;62.28
64889;BME280;51386;53.082;8.816;2023-02-21T05:30:20;101455.34;;;15.16;62.43
64889;BME280;51386;53.082;8.816;2023-02-21T05:32:48;101458.84;;;15.16;62.17
64889;BME280;51386;53.082;8.816;2023-02-21T05:35:16;101459.47;;;15.18;62.13
64889;BME280;51386;53.082;8.816;2023-02-21T05:37:44;101457.44;;;15.20;62.23
64889;BME280;51386;53.082;8.816;2023-02-21T05:40:11;101463.56;;;15.21;62.35
64889;BME280;51386;53.082;8.816;2023-02-21T05:42:39;101465.59;;;15.19;62.10
64889;BME280;51386;53.082;8.816;2023-02-21T05:45:07;101461.09;;;15.19;62.20
64889;BME280;51386;53.082;8.816;2023-02-21T05:47:35;101455.00;;;15.19;62.03
64889;BME280;51386;53.082;8.816;2023-02-21T05:50:04;101457.81;;;15.17;62.27
64889;BME280;51386;53.082;8.816;2023-02-21T05:52:31;101462.28;;;15.17;62.34
64889;BME280;51386;53.082;8.816;2023-02-21T05:54:59;101464.31;;;15.15;62.09
64889;BME280;51386;53.082;8.816;2023-02-21T05:57:28;101462.47;;;15.15;62.57
64889;BME280;51386;53.082;8.816;2023-02-21T05:59:54;101468.41;;;15.17;62.29
64889;BME280;51386;53.082;8.816;2023-02-21T06:02:21;101476.22;;;15.19;62.41
64889;BME280;51386;53.082;8.816;2023-02-21T06:04:48;101470.91;;;15.19;62.26
64889;BME280;51386;53.082;8.816;2023-02-21T06:07:15;101474.56;;;15.18;62.32
64889;BME280;51386;53.082;8.816;2023-02-21T06:09:44;101481.88;;;15.16;62.31
64889;BME280;51386;53.082;8.816;2023-02-21T06:12:12;101470.63;;;15.14;62.38
64889;BME280;51386;53.082;8.816;2023-02-21T06:14:39;101478.94;;;15.11;62.62
64889;BME280;51386;53.082;8.816;2023-02-21T06:17:06;101480.97;;;15.09;62.69
64889;BME280;51386;53.082;8.816;2023-02-21T06:19:33;101481.13;;;15.07;62.75
64889;BME280;51386;53.082;8.816;2023-02-21T06:22:00;101493.59;;;15.07;62.71
64889;BME280;51386;53.082;8.816;2023-02-21T06:24:27;101492.78;;;15.06;62.80
64889;BME280;51386;53.082;8.816;2023-02-21T06:26:54;101492.56;;;15.08;62.49
64889;BME280;51386;53.082;8.816;2023-02-21T06:29:23;101488.72;;;15.10;63.05
64889;BME280;51386;53.082;8.816;2023-02-21T06:31:55;101496.53;;;15.12;62.63
64889;BME280;51386;53.082;8.816;2023-02-21T06:34:23;101496.53;;;15.12;62.88
64889;BME280;51386;53.082;8.816;2023-02-21T06:36:51;101496.53;;;15.12;62.55
64889;BME280;51386;53.082;8.816;2023-02-21T06:39:18;101496.53;;;15.12;62.49
64889;BME280;51386;53.082;8.816;2023-02-21T06:41:45;101501.00;;;15.11;62.75
64889;BME280;51386;53.082;8.816;2023-02-21T06:44:12;101501.81;;;15.12;62.91
64889;BME280;51386;53.082;8.816;2023-02-21T06:46:41;101498.78;;;15.15;62.64
64889;BME280;51386;53.082;8.816;2023-02-21T06:49:09;101496.75;;;15.17;62.89
64889;BME280;51386;53.082;8.816;2023-02-21T06:51:39;101502.72;;;15.19;62.74
64889;BME280;51386;53.082;8.816;2023-02-21T06:54:07;101498.69;;;15.23;62.58
64889;BME280;51386;53.082;8.816;2023-02-21T06:56:35;101495.00;;;15.24;62.61
64889;BME280;51386;53.082;8.816;2023-02-21T06:59:02;101494.22;;;15.23;63.00
64889;BME280;51386;53.082;8.816;2023-02-21T07:01:30;101492.34;;;15.24;62.32
64889;BME280;51386;53.082;8.816;2023-02-21T07:03:58;101492.34;;;15.24;62.49
64889;BME280;51386;53.082;8.816;2023-02-21T07:06:26;101496.03;;;15.23;62.29
64889;BME280;51386;53.082;8.816;2023-02-21T07:08:55;101496.88;;;15.23;62.48
64889;BME280;51386;53.082;8.816;2023-02-21T07:11:23;101502.34;;;15.22;62.48
64889;BME280;51386;53.082;8.816;2023-02-21T07:13:50;101504.81;;;15.23;62.21
64889;BME280;51386;53.082;8.816;2023-02-21T07:16:18;101504.00;;;15.23;62.54
64889;BME280;51386;53.082;8.816;2023-02-21T07:18:46;101503.78;;;15.24;62.65
64889;BME280;51386;53.082;8.816;2023-02-21T07:21:15;101514.25;;;15.26;62.04
64889;BME280;51386;53.082;8.816;2023-02-21T07:23:44;101512.22;;;15.28;62.03
64889;BME280;51386;53.082;8.816;2023-02-21T07:26:12;101513.84;;;15.29;62.03
64889;BME280;51386;53.082;8.816;2023-02-21T07:28:39;101515.69;;;15.28;62.30
64889;BME280;51386;53.082;8.816;2023-02-21T07:31:06;101522.63;;;15.29;62.10
64889;BME280;51386;53.082;8.816;2023-02-21T07:33:33;101527.75;;;15.31;62.22
64889;BME280;51386;53.082;8.816;2023-02-21T07:36:01;101530.38;;;15.31;62.19
64889;BME280;51386;53.082;8.816;2023-02-21T07:38:34;101527.75;;;15.31;62.26
64889;BME280;51386;53.082;8.816;2023-02-21T07:41:03;101539.00;;;15.33;62.05
64889;BME280;51386;53.082;8.816;2023-02-21T07:43:31;101536.34;;;15.33;62.05
64889;BME280;51386;53.082;8.816;2023-02-21T07:45:59;101543.50;;;15.32;62.08
64889;BME280;51386;53.082;8.816;2023-02-21T07:48:26;101539.00;;;15.33;62.04
64889;BME280;51386;53.082;8.816;2023-02-21T07:50:53;101539.00;;;15.33;62.30
64889;BME280;51386;53.082;8.816;2023-02-21T07:53:20;101539.66;;;15.35;61.75
64889;BME280;51386;53.082;8.816;2023-02-21T07:55:49;101547.59;;;15.35;61.99
64889;BME280;51386;53.082;8.816;2023-02-21T07:58:16;101554.53;;;15.36;61.96
64889;BME280;51386;53.082;8.816;2023-02-21T08:00:46;101549.22;;;15.36;61.93
64889;BME280;51386;53.082;8.816;2023-02-21T08:03:13;101551.88;;;15.36;61.99
64889;BME280;51386;53.082;8.816;2023-02-21T08:05:40;101552.72;;;15.36;61.94
64889;BME280;51386;53.082;8.816;2023-02-21T08:08:08;101557.19;;;15.36;61.98
64889;BME280;51386;53.082;8.816;2023-02-21T08:10:35;101571.13;;;15.38;61.81
64889;BME280;51386;53.082;8.816;2023-02-21T08:13:04;101571.13;;;15.38;61.71
64889;BME280;51386;53.082;8.816;2023-02-21T08:15:31;101574.75;;;15.37;62.02
64889;BME280;51386;53.082;8.816;2023-02-21T08:17:58;101574.41;;;15.40;61.90
64889;BME280;51386;53.082;8.816;2023-02-21T08:20:25;101570.72;;;15.41;61.86
64889;BME280;51386;53.082;8.816;2023-02-21T08:22:52;101578.03;;;15.39;61.97
64889;BME280;51386;53.082;8.816;2023-02-21T08:25:19;101574.41;;;15.40;61.97
64889;BME280;51386;53.082;8.816;2023-02-21T08:27:51;101583.00;;;15.42;61.83
64889;BME280;51386;53.082;8.816;2023-02-21T08:30:22;101576.34;;;15.46;61.95
64889;BME280;51386;53.082;8.816;2023-02-21T08:32:53;101576.16;;;15.47;61.38
64889;BME280;51386;53.082;8.816;2023-02-21T08:35:20;101580.25;;;15.50;61.72
64889;BME280;51386;53.082;8.816;2023-02-21T08:37:50;101577.22;;;15.53;61.44
64889;BME280;51386;53.082;8.816;2023-02-21T08:40:18;101583.16;;;15.55;61.57
64889;BME280;51386;53.082;8.816;2023-02-21T08:42:48;101586.91;;;15.61;61.58
64889;BME280;51386;53.082;8.816;2023-02-21T08:45:19;101587.38;;;15.64;61.37
64889;BME280;51386;53.082;8.816;2023-02-21T08:47:48;101589.00;;;15.65;61.21
64889;BME280;51386;53.082;8.816;2023-02-21T08:50:17;101585.72;;;15.63;61.17
64889;BME280;51386;53.082;8.816;2023-02-21T08:52:45;101586.56;;;15.64;61.35
64889;BME280;51386;53.082;8.816;2023-02-21T08:55:12;101585.72;;;15.63;61.37
64889;BME280;51386;53.082;8.816;2023-02-21T08:58:31;101586.84;;;15.54;60.90
64889;BME280;51386;53.082;8.816;2023-02-21T09:53:02;101611.00;;;15.59;60.86
64889;BME280;51386;53.082;8.816;2023-02-21T09:55:34;101610.88;;;15.67;60.67
64889;BME280;51386;53.082;8.816;2023-02-21T09:58:02;101614.44;;;15.74;60.61
64889;BME280;51386;53.082;8.816;2023-02-21T10:00:35;101612.03;;;15.79;60.24
64889;BME280;51386;53.082;8.816;2023-02-21T10:03:25;101611.22;;;15.79;60.47
64889;BME280;51386;53.082;8.816;2023-02-21T10:06:03;101609.03;;;15.82;60.44
64889;BME280;51386;53.082;8.816;2023-02-21T10:08:43;101606.63;;;15.87;60.24
64889;BME280;51386;53.082;8.816;2023-02-21T10:11:26;101607.97;;;15.98;60.02
64889;BME280;51386;53.082;8.816;2023-02-21T10:14:08;101616.03;;;16.04;59.96
64889;BME280;51386;53.082;8.816;2023-02-21T10:16:47;101614.41;;;16.10;59.76
64889;BME280;51386;53.082;8.816;2023-02-21T10:19:24;101610.56;;;16.12;59.65
64889;BME280;51386;53.082;8.816;2023-02-21T10:21:54;101621.81;;;16.14;59.49
64889;BME280;51386;53.082;8.816;2023-02-21T10:24:27;101614.06;;;16.13;59.52
64889;BME280;51386;53.082;8.816;2023-02-21T10:27:01;101611.81;;;16.16;59.17
64889;BME280;51386;53.082;8.816;2023-02-21T10:29:41;101612.09;;;16.21;59.10
64889;BME280;51386;53.082;8.816;2023-02-21T10:32:10;101614.25;;;16.33;58.89
64889;BME280;51386;53.082;8.816;2023-02-21T10:34:37;101622.47;;;16.38;58.81
64889;BME280;51386;53.082;8.816;2023-02-21T10:37:22;101620.44;;;16.40;58.88
64889;BME280;51386;53.082;8.816;2023-02-21T10:40:00;101622.97;;;16.48;58.67
64889;BME280;51386;53.082;8.816;2023-02-21T10:42:37;101623.88;;;16.55;58.50
64889;BME280;51386;53.082;8.816;2023-02-21T10:45:07;101626.81;;;16.66;58.74
64889;BME280;51386;53.082;8.816;2023-02-21T10:47:50;101635.88;;;16.72;58.20
64889;BME280;51386;53.082;8.816;2023-02-21T10:50:48;101626.28;;;16.71;57.67
64889;BME280;51386;53.082;8.816;2023-02-21T10:53:28;101631.75;;;16.69;57.75
64889;BME280;51386;53.082;8.816;2023-02-21T10:56:19;101629.31;;;16.68;57.75
64889;BME280;51386;53.082;8.816;2023-02-21T10:58:49;101635.25;;;16.70;57.98
64889;BME280;51386;53.082;8.816;2023-02-21T11:01:20;101633.47;;;16.77;57.91
64889;BME280;51386;53.082;8.816;2023-02-21T11:03:50;101632.69;;;16.83;57.68
64889;BME280;51386;53.082;8.816;2023-02-21T11:06:26;101629.63;;;16.86;57.94
64889;BME280;51386;53.082;8.816;2023-02-21T11:08:58;101638.69;;;16.91;57.32
64889;BME280;51386;53.082;8.816;2023-02-21T11:11:39;101626.25;;;16.99;57.03
64889;BME280;51386;53.082;8.816;2023-02-21T11:14:21;101626.69;;;17.02;57.35
64889;BME280;51386;53.082;8.816;2023-02-21T11:17:13;101633.91;;;17.08;57.05
64889;BME280;51386;53.082;8.816;2023-02-21T11:19:50;101631.72;;;17.18;56.64
64889;BME280;51386;53.082;8.816;2023-02-21T11:22:23;101634.81;;;17.28;56.73
64889;BME280;51386;53.082;8.816;2023-02-21T11:24:59;101635.06;;;17.33;56.36
64889;BME280;51386;53.082;8.816;2023-02-21T11:27:32;101631.00;;;17.37;56.18
64889;BME280;51386;53.082;8.816;2023-02-21T11:30:09;101635.91;;;17.40;56.13
64889;BME280;51386;53.082;8.816;2023-02-21T11:32:40;101623.66;;;17.46;55.94
64889;BME280;51386;53.082;8.816;2023-02-21T11:35:23;101626.13;;;17.47;55.81
64889;BME280;51386;53.082;8.816;2023-02-21T11:37:56;101633.97;;;17.55;55.52
64889;BME280;51386;53.082;8.816;2023-02-21T11:40:31;101626.22;;;17.61;55.29
64889;BME280;51386;53.082;8.816;2023-02-21T11:43:21;101634.84;;;17.63;55.00
64889;BME280;51386;53.082;8.816;2023-02-21T11:46:02;101630.75;;;17.67;54.98
64889;BME280;51386;53.082;8.816;2023-02-21T11:48:36;101618.06;;;17.69;54.63
64889;BME280;51386;53.082;8.816;2023-02-21T11:51:31;101623.38;;;17.69;54.49
64889;BME280;51386;53.082;8.816;2023-02-21T11:53:59;101624.63;;;17.73;54.48
64889;BME280;51386;53.082;8.816;2023-02-21T11:56:38;101619.53;;;17.78;54.53
64889;BME280;51386;53.082;8.816;2023-02-21T11:59:28;101627.09;;;17.81;54.47
64889;BME280;51386;53.082;8.816;2023-02-21T12:02:49;101616.88;;;17.84;54.60
64889;BME280;51386;53.082;8.816;2023-02-21T12:05:31;101618.13;;;17.95;54.24
64889;BME280;51386;53.082;8.816;2023-02-21T12:08:23;101617.75;;;17.98;53.51
64889;BME280;51386;53.082;8.816;2023-02-21T12:11:09;101621.84;;;17.94;53.64
64889;BME280;51386;53.082;8.816;2023-02-21T12:13:53;101610.34;;;17.87;53.63
64889;BME280;51386;53.082;8.816;2023-02-21T12:16:38;101616.50;;;17.87;53.84
64889;BME280;51386;53.082;8.816;2023-02-21T12:19:41;101618.34;;;17.87;53.74
64889;BME280;51386;53.082;8.816;2023-02-21T12:22:24;101618.34;;;17.87;53.67
64889;BME280;51386;53.082;8.816;2023-02-21T12:25:10;101617.28;;;17.88;53.69
64889;BME280;51386;53.082;8.816;2023-02-21T12:27:52;101614.63;;;17.88;53.57
64889;BME280;51386;53.082;8.816;2023-02-21T12:30:36;101615.66;;;17.87;53.51
64889;BME280;51386;53.082;8.816;2023-02-21T12:33:23;101619.97;;;17.88;53.28
64889;BME280;51386;53.082;8.816;2023-02-21T12:36:24;101617.13;;;17.89;53.27
64889;BME280;51386;53.082;8.816;2023-02-21T12:39:10;101612.41;;;17.85;53.35
64889;BME280;51386;53.082;8.816;2023-02-21T12:42:02;101617.72;;;17.85;53.30
64889;BME280;51386;53.082;8.816;2023-02-21T12:44:42;101613.19;;;17.85;53.51
64889;BME280;51386;53.082;8.816;2023-02-21T12:47:18;101612.41;;;17.85;53.39
64889;BME280;51386;53.082;8.816;2023-02-21T12:49:57;101610.53;;;17.85;53.31
64889;BME280;51386;53.082;8.816;2023-02-21T12:52:33;101609.53;;;17.86;53.34
64889;BME280;51386;53.082;8.816;2023-02-21T12:55:06;101608.09;;;17.90;53.33
64889;BME280;51386;53.082;8.816;2023-02-21T12:57:48;101606.47;;;17.96;53.03
64889;BME280;51386;53.082;8.816;2023-02-21T13:00:20;101609.56;;;18.06;53.09
64889;BME280;51386;53.082;8.816;2023-02-21T13:02:59;101598.91;;;18.19;52.94
64889;BME280;51386;53.082;8.816;2023-02-21T13:05:37;101594.44;;;18.33;52.79
64889;BME280;51386;53.082;8.816;2023-02-21T13:08:15;101596.50;;;18.44;52.25
64889;BME280;51386;53.082;8.816;2023-02-21T13:10:55;101586.25;;;18.47;52.17
64889;BME280;51386;53.082;8.816;2023-02-21T13:13:30;101594.47;;;18.52;51.88
64889;BME280;51386;53.082;8.816;2023-02-21T13:16:03;101590.38;;;18.56;51.98
64889;BME280;51386;53.082;8.816;2023-02-21T13:18:35;101588.31;;;18.58;51.71
64889;BME280;51386;53.082;8.816;2023-02-21T13:21:23;101594.47;;;18.65;51.74
64889;BME280;51386;53.082;8.816;2023-02-21T13:24:23;101580.53;;;18.70;51.17
64889;BME280;51386;53.082;8.816;2023-02-21T13:27:44;101585.44;;;18.66;51.13
64889;BME280;51386;53.082;8.816;2023-02-21T13:30:21;101578.47;;;18.65;51.26
64889;BME280;51386;53.082;8.816;2023-02-21T13:32:53;101575.81;;;18.59;50.43
64889;BME280;51386;53.082;8.816;2023-02-21T13:35:30;101579.69;;;18.50;50.74
64889;BME280;51386;53.082;8.816;2023-02-21T13:38:01;101579.91;;;18.48;50.61
64889;BME280;51386;53.082;8.816;2023-02-21T13:40:36;101580.50;;;18.44;50.60
64889;BME280;51386;53.082;8.816;2023-02-21T13:43:11;101582.53;;;18.35;50.75
64889;BME280;51386;53.082;8.816;2023-02-21T13:45:39;101584.78;;;18.32;50.95
64889;BME280;51386;53.082;8.816;2023-02-21T13:48:28;101580.47;;;18.24;51.04
64889;BME280;51386;53.082;8.816;2023-02-21T13:50:57;101576.81;;;18.25;51.29
64889;BME280;51386;53.082;8.816;2023-02-21T13:53:29;101578.03;;;18.22;51.06
64889;BME280;51386;53.082;8.816;2023-02-21T13:56:16;101576.38;;;18.15;51.14
64889;BME280;51386;53.082;8.816;2023-02-21T13:58:46;101585.38;;;18.14;51.28
64889;BME280;51386;53.082;8.816;2023-02-21T14:01:40;101577.22;;;18.09;51.16
64889;BME280;51386;53.082;8.816;2023-02-21T14:04:59;101578.59;;;18.05;51.27
64889;BME280;51386;53.082;8.816;2023-02-21T14:07:54;101577.38;;;18.01;51.36
64889;BME280;51386;53.082;8.816;2023-02-21T14:10:36;101578.41;;;18.00;51.47
64889;BME280;51386;53.082;8.816;2023-02-21T14:13:16;101584.34;;;18.02;51.49
64889;BME280;51386;53.082;8.816;2023-02-21T14:15:48;101573.88;;;18.00;51.42
64889;BME280;51386;53.082;8.816;2023-02-21T14:18:23;101569.78;;;17.98;51.50
64889;BME280;51386;53.082;8.816;2023-02-21T14:20:54;101575.72;;;18.00;51.52
64889;BME280;51386;53.082;8.816;2023-02-21T14:23:30;101570.63;;;17.98;51.43
64889;BME280;51386;53.082;8.816;2023-02-21T14:26:02;101573.50;;;17.97;51.46
64889;BME280;51386;53.082;8.816;2023-02-21T14:29:08;101574.28;;;17.91;51.37
64889;BME280;51386;53.082;8.816;2023-02-21T14:31:53;101572.66;;;17.90;51.40
64889;BME280;51386;53.082;8.816;2023-02-21T14:34:32;101568.34;;;17.89;51.66